createdAt,value
2022-08-25T00:00:22.732Z,81.51
2022-08-25T00:01:22.731Z,81.41
2022-08-25T00:02:22.738Z,81.31
2022-08-25T00:03:22.696Z,81.31
2022-08-25T00:04:22.687Z,81.31
2022-08-25T00:05:22.760Z,81.12
2022-08-25T00:06:22.680Z,81.41
2022-08-25T00:07:22.652Z,81.61
2022-08-25T00:08:22.643Z,81.61
2022-08-25T00:09:22.633Z,81.71
2022-08-25T00:10:22.625Z,81.61
2022-08-25T00:11:22.621Z,81.31
2022-08-25T00:12:22.603Z,81.31
2022-08-25T00:13:22.589Z,81.41
2022-08-25T00:14:22.580Z,81.41
2022-08-25T00:15:22.568Z,81.12
2022-08-25T00:16:22.661Z,81.01
2022-08-25T00:17:22.547Z,81.31
2022-08-25T00:18:22.538Z,81.71
2022-08-25T00:19:22.527Z,82.01
2022-08-25T00:20:22.536Z,82.11
2022-08-25T00:21:22.524Z,81.81
2022-08-25T00:22:22.494Z,82.15
2022-08-25T00:23:22.486Z,82.21
2022-08-25T00:24:22.472Z,82.25
2022-08-25T00:25:22.463Z,81.81
2022-08-25T00:26:22.464Z,81.92
2022-08-25T00:27:22.442Z,82.01
2022-08-25T00:28:22.433Z,82.15
2022-08-25T00:29:22.424Z,82.11
2022-08-25T00:30:22.424Z,82.11
2022-08-25T00:31:22.450Z,81.92
2022-08-25T00:32:22.389Z,82.11
2022-08-25T00:33:22.380Z,82.11
2022-08-25T00:34:22.369Z,82.21
2022-08-25T00:35:22.369Z,82.21
2022-08-25T00:36:22.345Z,82.01
2022-08-25T00:37:22.337Z,81.95
2022-08-25T00:38:22.324Z,82.11
2022-08-25T00:39:22.318Z,82.21
2022-08-25T00:40:22.382Z,82.11
2022-08-25T00:41:22.299Z,82.35
2022-08-25T00:42:22.283Z,81.92
2022-08-25T00:43:22.273Z,82.15
2022-08-25T00:44:22.260Z,82.05
2022-08-25T00:45:22.261Z,82.05
2022-08-25T00:46:22.275Z,81.95
2022-08-25T00:47:22.233Z,82.35
2022-08-25T00:48:22.221Z,82.35
2022-08-25T00:49:25.401Z,82.15
2022-08-25T00:50:22.206Z,82.65
2022-08-25T00:51:22.190Z,82.69
2022-08-25T00:52:22.195Z,82.75
2022-08-25T00:53:22.165Z,82.55
2022-08-25T00:54:22.156Z,82.35
2022-08-25T00:55:22.157Z,82.65
2022-08-25T00:56:22.138Z,82.75
2022-08-25T00:57:33.936Z,82.65
2022-08-25T00:58:23.109Z,82.65
2022-08-25T00:59:22.101Z,82.79
2022-08-25T01:00:22.099Z,82.75
2022-08-25T01:01:22.142Z,82.75
2022-08-25T01:02:22.092Z,82.75
2022-08-25T01:03:23.855Z,82.55
2022-08-25T01:04:23.045Z,82.55
2022-08-25T01:05:22.050Z,82.45
2022-08-25T01:06:22.027Z,82.45
2022-08-25T01:07:22.015Z,82.55
2022-08-25T01:08:22.006Z,82.55
2022-08-25T01:09:21.994Z,82.65
2022-08-25T01:10:21.996Z,82.55
2022-08-25T01:11:21.973Z,83.09
2022-08-25T01:12:21.961Z,83.39
2022-08-25T01:13:21.952Z,83.69
2022-08-25T01:14:21.948Z,83.79
2022-08-25T01:15:21.967Z,83.39
2022-08-25T01:16:21.921Z,83.69
2022-08-25T01:17:21.912Z,83.69
2022-08-25T01:18:21.899Z,83.69
2022-08-25T01:19:21.902Z,83.69
2022-08-25T01:20:21.879Z,83.19
2022-08-25T01:21:21.883Z,83.59
2022-08-25T01:22:21.855Z,83.49
2022-08-25T01:23:21.849Z,84.09
2022-08-25T01:24:21.848Z,84.13
2022-08-25T01:25:21.823Z,83.99
2022-08-25T01:26:30.384Z,83.09
2022-08-25T01:27:22.807Z,83.59
2022-08-25T01:28:21.790Z,83.29
2022-08-25T01:29:21.794Z,83.69
2022-08-25T01:30:21.770Z,83.09
2022-08-25T01:31:24.143Z,83.09
2022-08-25T01:32:21.749Z,82.99
2022-08-25T01:33:21.739Z,83.59
2022-08-25T01:34:21.737Z,83.39
2022-08-25T01:35:21.725Z,83.69
2022-08-25T01:36:21.707Z,83.79
2022-08-25T01:37:21.707Z,83.99
2022-08-25T01:38:21.685Z,83.99
2022-08-25T01:39:21.691Z,83.89
2022-08-25T01:40:21.714Z,83.39
2022-08-25T01:41:21.661Z,83.03
2022-08-25T01:42:21.645Z,83.29
2022-08-25T01:43:21.632Z,83.79
2022-08-25T01:44:21.633Z,83.19
2022-08-25T01:45:21.610Z,83.79
2022-08-25T01:46:21.703Z,83.29
2022-08-25T01:47:21.590Z,83.99
2022-08-25T01:48:21.577Z,83.09
2022-08-25T01:49:21.582Z,83.59
2022-08-25T01:50:21.557Z,83.49
2022-08-25T01:51:21.546Z,83.59
2022-08-25T01:52:21.535Z,83.29
2022-08-25T01:53:21.526Z,83.29
2022-08-25T01:54:21.528Z,83.29
2022-08-25T01:55:21.509Z,83.29
2022-08-25T01:56:21.491Z,83.29
2022-08-25T01:57:21.487Z,83.09
2022-08-25T01:58:21.473Z,83.59
2022-08-25T01:59:24.329Z,83.39
2022-08-25T02:00:21.450Z,83.29
2022-08-25T02:01:21.491Z,83.39
2022-08-25T02:02:21.473Z,83.29
2022-08-25T02:03:21.419Z,82.69
2022-08-25T02:04:21.759Z,82.79
2022-08-25T02:05:23.480Z,83.19
2022-08-25T02:06:21.385Z,83.19
2022-08-25T02:07:22.376Z,83.59
2022-08-25T02:08:21.364Z,83.09
2022-08-25T02:09:21.362Z,83.09
2022-08-25T02:10:21.340Z,83.39
2022-08-25T02:11:21.332Z,83.09
2022-08-25T02:12:21.327Z,83.99
2022-08-25T02:13:26.602Z,84.03
2022-08-25T02:14:22.310Z,83.83
2022-08-25T02:15:21.291Z,83.89
2022-08-25T02:16:21.307Z,83.49
2022-08-25T02:17:21.294Z,83.69
2022-08-25T02:18:21.256Z,83.73
2022-08-25T02:19:21.257Z,83.59
2022-08-25T02:20:21.234Z,83.53
2022-08-25T02:21:21.240Z,83.53
2022-08-25T02:22:21.219Z,84.23
2022-08-25T02:23:21.204Z,84.03
2022-08-25T02:24:21.204Z,83.43
2022-08-25T02:25:21.182Z,83.43
2022-08-25T02:26:21.168Z,83.59
2022-08-25T02:27:21.160Z,83.83
2022-08-25T02:28:21.148Z,83.33
2022-08-25T02:29:21.149Z,83.93
2022-08-25T02:30:21.152Z,84.03
2022-08-25T02:31:21.117Z,83.33
2022-08-25T02:32:21.104Z,84.03
2022-08-25T02:33:21.113Z,83.73
2022-08-25T02:34:21.082Z,84.03
2022-08-25T02:35:21.085Z,83.63
2022-08-25T02:36:21.065Z,83.93
2022-08-25T02:37:21.052Z,84.13
2022-08-25T02:38:21.049Z,83.53
2022-08-25T02:39:21.029Z,83.43
2022-08-25T02:40:21.109Z,83.63
2022-08-25T02:41:21.012Z,84.23
2022-08-25T02:42:20.997Z,84.13
2022-08-25T02:43:21.009Z,83.93
2022-08-25T02:44:20.974Z,83.93
2022-08-25T02:45:20.964Z,83.97
2022-08-25T02:46:21.007Z,85.17
2022-08-25T02:47:24.616Z,85.37
2022-08-25T02:48:21.948Z,85.27
2022-08-25T02:49:20.923Z,85.37
2022-08-25T02:50:20.910Z,84.97
2022-08-25T02:51:20.899Z,85.07
2022-08-25T02:52:20.886Z,85.07
2022-08-25T02:53:20.876Z,85.07
2022-08-25T02:54:20.878Z,84.97
2022-08-25T02:55:20.857Z,85.17
2022-08-25T02:56:20.843Z,85.07
2022-08-25T02:57:20.834Z,85.17
2022-08-25T02:58:20.821Z,85.17
2022-08-25T02:59:20.850Z,85.07
2022-08-25T03:00:20.811Z,85.17
2022-08-25T03:01:20.834Z,84.67
2022-08-25T03:02:20.795Z,85.57
2022-08-25T03:03:20.804Z,85.37
2022-08-25T03:04:20.763Z,85.47
2022-08-25T03:05:20.747Z,85.57
2022-08-25T03:06:20.733Z,85.57
2022-08-25T03:07:20.725Z,84.57
2022-08-25T03:08:20.713Z,84.57
2022-08-25T03:09:20.715Z,85.37
2022-08-25T03:10:20.689Z,84.57
2022-08-25T03:11:20.706Z,84.87
2022-08-25T03:12:20.670Z,85.27
2022-08-25T03:13:20.658Z,85.11
2022-08-25T03:14:20.654Z,85.07
2022-08-25T03:15:20.636Z,84.91
2022-08-25T03:16:20.678Z,84.67
2022-08-25T03:17:20.614Z,84.31
2022-08-25T03:18:20.613Z,85.21
2022-08-25T03:19:20.598Z,84.27
2022-08-25T03:20:20.579Z,85.07
2022-08-25T03:21:20.572Z,85.37
2022-08-25T03:22:20.562Z,85.17
2022-08-25T03:23:20.559Z,85.17
2022-08-25T03:24:20.536Z,84.77
2022-08-25T03:25:24.070Z,84.97
2022-08-25T03:26:20.514Z,85.07
2022-08-25T03:27:20.506Z,85.17
2022-08-25T03:28:20.502Z,84.17
2022-08-25T03:29:20.488Z,85.27
2022-08-25T03:30:20.471Z,84.97
2022-08-25T03:31:20.488Z,84.27
2022-08-25T03:32:20.452Z,84.77
2022-08-25T03:33:20.454Z,84.97
2022-08-25T03:34:20.436Z,85.07
2022-08-25T03:35:20.417Z,85.07
2022-08-25T03:36:20.427Z,85.17
2022-08-25T03:37:20.398Z,85.17
2022-08-25T03:38:20.384Z,85.11
2022-08-25T03:39:20.448Z,85.11
2022-08-25T03:40:20.411Z,85.11
2022-08-25T03:41:20.352Z,85.51
2022-08-25T03:42:20.340Z,85.31
2022-08-25T03:43:20.332Z,85.31
2022-08-25T03:44:20.329Z,85.71
2022-08-25T03:45:20.309Z,85.21
2022-08-25T03:46:20.413Z,84.91
2022-08-25T03:47:20.286Z,85.41
2022-08-25T03:48:20.273Z,84.81
2022-08-25T03:49:20.277Z,85.01
2022-08-25T03:50:20.252Z,85.11
2022-08-25T03:51:20.245Z,84.97
2022-08-25T03:52:20.230Z,85.31
2022-08-25T03:53:20.220Z,85.01
2022-08-25T03:54:20.241Z,84.31
2022-08-25T03:55:20.201Z,85.01
2022-08-25T03:56:20.186Z,85.31
2022-08-25T03:57:20.176Z,85.21
2022-08-25T03:58:20.200Z,84.91
2022-08-25T03:59:20.168Z,85.31
2022-08-25T04:00:20.141Z,84.91
2022-08-25T04:01:20.282Z,85.01
2022-08-25T04:02:20.165Z,84.91
2022-08-25T04:03:20.112Z,85.01
2022-08-25T04:04:20.111Z,85.11
2022-08-25T04:05:20.088Z,85.11
2022-08-25T04:06:20.078Z,85.01
2022-08-25T04:07:20.069Z,84.41
2022-08-25T04:08:20.064Z,85.35
2022-08-25T04:09:20.046Z,85.55
2022-08-25T04:10:20.033Z,85.21
2022-08-25T04:11:20.025Z,85.25
2022-08-25T04:12:20.013Z,85.31
2022-08-25T04:13:20.017Z,85.66
2022-08-25T04:14:19.990Z,85.35
2022-08-25T04:15:19.979Z,86.05
2022-08-25T04:16:20.024Z,86.55
2022-08-25T04:17:19.957Z,86.35
2022-08-25T04:18:19.953Z,85.46
2022-08-25T04:19:19.936Z,85.85
2022-08-25T04:20:19.923Z,85.66
2022-08-25T04:21:19.913Z,85.66
2022-08-25T04:22:19.901Z,85.55
2022-08-25T04:23:19.904Z,85.85
2022-08-25T04:24:19.880Z,85.91
2022-08-25T04:25:19.869Z,85.61
2022-08-25T04:26:19.863Z,85.82
2022-08-25T04:27:19.848Z,85.41
2022-08-25T04:28:19.846Z,85.01
2022-08-25T04:29:19.827Z,85.21
2022-08-25T04:30:19.826Z,84.61
2022-08-25T04:31:19.840Z,84.61
2022-08-25T04:32:19.799Z,85.01
2022-08-25T04:33:19.798Z,85.01
2022-08-25T04:34:29.336Z,85.01
2022-08-25T04:35:20.760Z,84.37
2022-08-25T04:36:19.759Z,85.21
2022-08-25T04:37:19.738Z,85.31
2022-08-25T04:38:19.751Z,85.11
2022-08-25T04:39:19.718Z,85.07
2022-08-25T04:40:19.736Z,85.37
2022-08-25T04:41:19.700Z,84.87
2022-08-25T04:42:19.691Z,84.87
2022-08-25T04:43:19.680Z,84.67
2022-08-25T04:44:19.692Z,85.07
2022-08-25T04:45:19.655Z,84.97
2022-08-25T04:46:20.607Z,84.87
2022-08-25T04:47:19.630Z,85.07
2022-08-25T04:48:19.621Z,84.67
2022-08-25T04:49:19.667Z,84.57
2022-08-25T04:50:19.644Z,84.03
2022-08-25T04:51:19.592Z,83.97
2022-08-25T04:52:19.581Z,83.97
2022-08-25T04:53:19.568Z,84.03
2022-08-25T04:54:19.567Z,84.17
2022-08-25T04:55:19.547Z,83.33
2022-08-25T04:56:19.537Z,83.67
2022-08-25T04:57:19.529Z,83.73
2022-08-25T04:58:19.517Z,83.87
2022-08-25T04:59:19.516Z,83.77
2022-08-25T05:00:19.496Z,83.53
2022-08-25T05:01:19.539Z,83.57
2022-08-25T05:02:19.475Z,83.73
2022-08-25T05:03:19.462Z,83.93
2022-08-25T05:04:28.111Z,84.03
2022-08-25T05:05:20.438Z,83.93
2022-08-25T05:06:19.432Z,83.93
2022-08-25T05:07:19.420Z,83.63
2022-08-25T05:08:19.411Z,84.03
2022-08-25T05:09:19.839Z,83.83
2022-08-25T05:10:19.389Z,83.73
2022-08-25T05:11:19.377Z,83.23
2022-08-25T05:12:19.370Z,83.83
2022-08-25T05:13:19.356Z,83.63
2022-08-25T05:14:19.358Z,83.93
2022-08-25T05:15:19.334Z,83.83
2022-08-25T05:16:19.409Z,83.43
2022-08-25T05:17:19.314Z,84.13
2022-08-25T05:18:19.315Z,83.93
2022-08-25T05:19:19.317Z,83.73
2022-08-25T05:20:19.283Z,83.63
2022-08-25T05:21:19.333Z,84.03
2022-08-25T05:22:19.265Z,83.63
2022-08-25T05:23:19.253Z,83.83
2022-08-25T05:24:19.254Z,83.57
2022-08-25T05:25:19.233Z,83.93
2022-08-25T05:26:20.413Z,83.83
2022-08-25T05:27:19.211Z,83.63
2022-08-25T05:28:19.201Z,84.13
2022-08-25T05:29:19.197Z,83.93
2022-08-25T05:30:19.181Z,83.93
2022-08-25T05:31:19.213Z,83.33
2022-08-25T05:32:19.157Z,83.93
2022-08-25T05:33:19.171Z,84.23
2022-08-25T05:34:19.202Z,85.13
2022-08-25T05:35:19.125Z,84.87
2022-08-25T05:36:19.115Z,84.97
2022-08-25T05:37:19.101Z,84.57
2022-08-25T05:38:19.093Z,85.33
2022-08-25T05:39:19.094Z,85.37
2022-08-25T05:40:19.115Z,84.53
2022-08-25T05:41:19.062Z,84.47
2022-08-25T05:42:19.056Z,85.03
2022-08-25T05:43:19.038Z,84.87
2022-08-25T05:44:21.089Z,85.37
2022-08-25T05:45:20.583Z,85.03
2022-08-25T05:46:19.125Z,84.97
2022-08-25T05:47:18.999Z,84.77
2022-08-25T05:48:18.988Z,84.77
2022-08-25T05:49:18.985Z,84.67
2022-08-25T05:50:18.971Z,85.47
2022-08-25T05:51:18.953Z,85.07
2022-08-25T05:52:20.229Z,85.68
2022-08-25T05:53:18.935Z,85.53
2022-08-25T05:54:18.939Z,85.53
2022-08-25T05:55:18.911Z,85.33
2022-08-25T05:56:18.927Z,85.17
2022-08-25T05:57:18.890Z,84.67
2022-08-25T05:58:18.881Z,85.17
2022-08-25T05:59:18.880Z,85.17
2022-08-25T06:00:18.871Z,85.37
2022-08-25T06:01:18.961Z,85.07
2022-08-25T06:02:18.839Z,85.27
2022-08-25T06:03:18.902Z,84.97
2022-08-25T06:04:18.827Z,85.68
2022-08-25T06:05:18.806Z,86.18
2022-08-25T06:06:18.797Z,86.21
2022-08-25T06:07:18.784Z,86.21
2022-08-25T06:08:18.776Z,86.21
2022-08-25T06:09:18.774Z,86.52
2022-08-25T06:10:18.754Z,86.96
2022-08-25T06:11:18.744Z,87.41
2022-08-25T06:12:18.733Z,87.26
2022-08-25T06:13:18.721Z,87.55
2022-08-25T06:14:19.724Z,87.36
2022-08-25T06:15:18.700Z,87.62
2022-08-25T06:16:18.764Z,87.86
2022-08-25T06:17:18.679Z,87.86
2022-08-25T06:18:18.671Z,88.02
2022-08-25T06:19:18.668Z,87.52
2022-08-25T06:20:18.659Z,87.71
2022-08-25T06:21:18.646Z,88.12
2022-08-25T06:22:18.631Z,88.06
2022-08-25T06:23:18.615Z,88.16
2022-08-25T06:24:18.616Z,88.16
2022-08-25T06:25:18.594Z,88.36
2022-08-25T06:26:20.933Z,88.16
2022-08-25T06:27:18.573Z,87.96
2022-08-25T06:28:18.577Z,88.36
2022-08-25T06:29:18.554Z,88.36
2022-08-25T06:30:22.439Z,88.16
2022-08-25T06:31:19.686Z,88.32
2022-08-25T06:32:18.523Z,88.32
2022-08-25T06:33:18.568Z,88.62
2022-08-25T06:34:18.505Z,88.62
2022-08-25T06:35:18.492Z,87.92
2022-08-25T06:36:18.480Z,88.32
2022-08-25T06:37:21.219Z,88.12
2022-08-25T06:38:18.473Z,87.68
2022-08-25T06:39:18.450Z,87.27
2022-08-25T06:40:18.583Z,87.52
2022-08-25T06:41:18.427Z,87.37
2022-08-25T06:42:18.419Z,87.52
2022-08-25T06:43:18.430Z,87.57
2022-08-25T06:44:18.397Z,87.27
2022-08-25T06:45:18.384Z,87.48
2022-08-25T06:46:18.434Z,87.48
2022-08-25T06:47:18.400Z,87.37
2022-08-25T06:48:18.368Z,87.27
2022-08-25T06:49:18.361Z,87.27
2022-08-25T06:50:18.333Z,86.98
2022-08-25T06:51:18.327Z,87.07
2022-08-25T06:52:18.312Z,86.77
2022-08-25T06:53:18.314Z,87.18
2022-08-25T06:54:18.302Z,87.27
2022-08-25T06:55:18.279Z,87.27
2022-08-25T06:56:18.271Z,87.48
2022-08-25T06:57:18.258Z,87.07
2022-08-25T06:58:18.248Z,86.98
2022-08-25T06:59:18.255Z,86.98
2022-08-25T07:00:18.262Z,86.77
2022-08-25T07:01:20.094Z,86.63
2022-08-25T07:02:22.004Z,86.47
2022-08-25T07:03:18.259Z,86.63
2022-08-25T07:04:18.185Z,86.63
2022-08-25T07:05:27.188Z,86.63
2022-08-25T07:06:19.162Z,86.83
2022-08-25T07:07:18.161Z,86.63
2022-08-25T07:08:18.145Z,86.53
2022-08-25T07:09:18.142Z,86.13
2022-08-25T07:10:19.494Z,86.33
2022-08-25T07:11:18.114Z,86.13
2022-08-25T07:12:18.101Z,86.63
2022-08-25T07:13:18.102Z,86.43
2022-08-25T07:14:18.079Z,86.33
2022-08-25T07:15:20.540Z,86.83
2022-08-25T07:16:18.123Z,86.57
2022-08-25T07:17:18.046Z,86.43
2022-08-25T07:18:18.062Z,86.73
2022-08-25T07:19:18.024Z,86.33
2022-08-25T07:20:19.128Z,86.83
2022-08-25T07:21:20.629Z,86.73
2022-08-25T07:22:18.993Z,86.33
2022-08-25T07:23:18.012Z,86.63
2022-08-25T07:24:17.972Z,86.63
2022-08-25T07:25:18.096Z,86.83
2022-08-25T07:26:41.241Z,86.73
2022-08-25T07:27:18.940Z,86.73
2022-08-25T07:28:17.943Z,86.43
2022-08-25T07:29:17.920Z,86.63
2022-08-25T07:30:17.912Z,87.23
2022-08-25T07:31:17.895Z,86.79
2022-08-25T07:32:17.889Z,86.53
2022-08-25T07:33:17.895Z,86.59
2022-08-25T07:34:17.869Z,86.59
2022-08-25T07:35:19.117Z,86.79
2022-08-25T07:36:17.859Z,86.29
2022-08-25T07:37:27.536Z,86.49
2022-08-25T07:38:20.794Z,86.39
2022-08-25T07:39:17.812Z,86.79
2022-08-25T07:40:18.210Z,86.49
2022-08-25T07:41:17.791Z,86.55
2022-08-25T07:42:17.781Z,86.15
2022-08-25T07:43:17.784Z,86.05
2022-08-25T07:44:17.760Z,86.45
2022-08-25T07:45:20.620Z,86.55
2022-08-25T07:46:17.776Z,85.65
2022-08-25T07:47:17.724Z,85.15
2022-08-25T07:48:18.722Z,85.41
2022-08-25T07:49:17.704Z,85.31
2022-08-25T07:50:18.693Z,85.41
2022-08-25T07:51:17.735Z,85.21
2022-08-25T07:52:17.672Z,85.31
2022-08-25T07:53:17.664Z,84.91
2022-08-25T07:54:17.664Z,84.97
2022-08-25T07:55:17.778Z,84.97
2022-08-25T07:56:17.631Z,84.97
2022-08-25T07:57:17.616Z,84.67
2022-08-25T07:58:17.609Z,84.07
2022-08-25T07:59:17.604Z,83.73
2022-08-25T08:00:17.585Z,83.93
2022-08-25T08:01:17.604Z,83.93
2022-08-25T08:02:18.915Z,83.53
2022-08-25T08:03:35.225Z,83.43
2022-08-25T08:04:18.585Z,83.43
2022-08-25T08:05:17.550Z,83.53
2022-08-25T08:06:17.519Z,83.83
2022-08-25T08:07:17.508Z,84.83
2022-08-25T08:08:17.501Z,84.27
2022-08-25T08:09:17.507Z,84.13
2022-08-25T08:11:18.460Z,84.63
2022-08-25T08:12:17.452Z,85.13
2022-08-25T08:13:18.646Z,84.59
2022-08-25T08:14:17.559Z,83.83
2022-08-25T08:15:17.418Z,83.79
2022-08-25T08:16:17.535Z,83.39
2022-08-25T08:17:17.396Z,83.39
2022-08-25T08:18:17.390Z,83.19
2022-08-25T08:19:17.390Z,83.00
2022-08-25T08:20:23.164Z,82.75
2022-08-25T08:21:19.883Z,82.65
2022-08-25T08:22:17.345Z,82.65
2022-08-25T08:23:17.331Z,82.26
2022-08-25T08:24:40.679Z,81.96
2022-08-25T08:25:18.763Z,81.92
2022-08-25T08:26:17.297Z,82.21
2022-08-25T08:27:17.285Z,82.21
2022-08-25T08:28:17.276Z,81.72
2022-08-25T08:29:17.279Z,81.08
2022-08-25T08:30:17.257Z,81.48
2022-08-25T08:31:17.299Z,81.08
2022-08-25T08:32:17.233Z,80.48
2022-08-25T08:33:17.216Z,79.85
2022-08-25T08:34:17.221Z,79.25
2022-08-25T08:35:17.195Z,79.81
2022-08-25T08:36:17.187Z,79.61
2022-08-25T08:37:17.173Z,79.57
2022-08-25T08:38:22.177Z,78.64
2022-08-25T08:39:18.190Z,77.17
2022-08-25T08:40:17.213Z,75.21
2022-08-25T08:41:17.152Z,74.62
2022-08-25T08:42:18.120Z,73.89
2022-08-25T08:43:18.118Z,73.59
2022-08-25T08:44:17.114Z,73.89
2022-08-25T08:45:17.091Z,72.66
2022-08-25T08:46:17.130Z,72.43
2022-08-25T08:47:17.065Z,71.41
2022-08-25T08:48:17.056Z,71.01
2022-08-25T08:49:17.052Z,70.54
2022-08-25T08:50:22.444Z,71.14
2022-08-25T08:51:18.022Z,71.54
2022-08-25T08:52:17.020Z,71.44
2022-08-25T08:53:17.003Z,71.64
2022-08-25T08:54:17.004Z,71.34
2022-08-25T08:55:16.982Z,71.37
2022-08-25T08:56:16.985Z,71.57
2022-08-25T08:57:17.365Z,71.37
2022-08-25T08:58:16.948Z,72.17
2022-08-25T08:59:16.948Z,72.30
2022-08-25T09:00:16.976Z,72.50
2022-08-25T09:01:16.994Z,72.40
2022-08-25T09:02:22.109Z,72.80
2022-08-25T09:03:17.927Z,72.60
2022-08-25T09:04:16.896Z,72.56
2022-08-25T09:05:16.881Z,72.27
2022-08-25T09:06:16.861Z,71.97
2022-08-25T09:07:16.856Z,71.31
2022-08-25T09:08:20.450Z,71.01
2022-08-25T09:09:16.839Z,69.46
2022-08-25T09:10:16.941Z,68.33
2022-08-25T09:11:18.894Z,67.87
2022-08-25T09:12:17.171Z,67.58
2022-08-25T09:13:16.791Z,67.11
2022-08-25T09:14:16.795Z,67.51
2022-08-25T09:15:16.766Z,67.41
2022-08-25T09:16:20.533Z,67.58
2022-08-25T09:17:17.746Z,66.99
2022-08-25T09:18:16.745Z,67.41
2022-08-25T09:19:23.330Z,67.64
2022-08-25T09:20:18.209Z,68.43
2022-08-25T09:21:16.715Z,67.80
2022-08-25T09:22:33.694Z,67.21
2022-08-25T09:23:20.194Z,67.21
2022-08-25T09:24:16.687Z,67.84
2022-08-25T09:25:22.121Z,68.37
2022-08-25T09:26:17.644Z,68.50
2022-08-25T09:27:16.643Z,68.83
2022-08-25T09:28:16.648Z,70.75
2022-08-25T09:29:17.175Z,71.28
2022-08-25T09:30:16.608Z,71.67
2022-08-25T09:31:16.659Z,71.77
2022-08-25T09:32:16.585Z,71.91
2022-08-25T09:33:20.985Z,71.87
2022-08-25T09:34:16.589Z,69.72
2022-08-25T09:35:16.553Z,69.29
2022-08-25T09:36:16.545Z,69.65
2022-08-25T09:37:16.533Z,68.10
2022-08-25T09:38:16.530Z,66.95
2022-08-25T09:39:16.565Z,67.48
2022-08-25T09:40:16.586Z,67.71
2022-08-25T09:41:16.493Z,67.41
2022-08-25T09:42:19.040Z,66.29
2022-08-25T09:43:17.520Z,66.16
2022-08-25T09:44:16.464Z,65.64
2022-08-25T09:45:16.452Z,65.14
2022-08-25T09:46:16.524Z,65.21
2022-08-25T09:47:16.431Z,64.00
2022-08-25T09:48:16.415Z,63.18
2022-08-25T09:49:16.416Z,63.77
2022-08-25T09:50:18.666Z,63.70
2022-08-25T09:51:16.389Z,64.12
2022-08-25T09:52:16.378Z,64.15
2022-08-25T09:53:17.375Z,65.47
2022-08-25T09:54:16.361Z,65.80
2022-08-25T09:55:16.344Z,66.09
2022-08-25T09:56:16.332Z,66.22
2022-08-25T09:57:16.328Z,67.47
2022-08-25T09:58:16.309Z,67.87
2022-08-25T09:59:16.308Z,68.37
2022-08-25T10:00:16.289Z,68.86
2022-08-25T10:01:16.326Z,68.37
2022-08-25T10:02:16.265Z,67.54
2022-08-25T10:03:16.257Z,66.29
2022-08-25T10:04:20.748Z,66.42
2022-08-25T10:05:16.406Z,66.03
2022-08-25T10:06:16.227Z,66.16
2022-08-25T10:07:16.218Z,67.54
2022-08-25T10:08:16.383Z,66.19
2022-08-25T10:09:17.202Z,65.90
2022-08-25T10:10:16.182Z,66.33
2022-08-25T10:11:16.208Z,66.29
2022-08-25T10:12:16.167Z,66.39
2022-08-25T10:13:16.195Z,65.97
2022-08-25T10:14:17.143Z,64.95
2022-08-25T10:15:16.131Z,63.93
2022-08-25T10:16:20.495Z,63.08
2022-08-25T10:17:17.109Z,61.74
2022-08-25T10:18:16.116Z,61.83
2022-08-25T10:19:16.090Z,62.13
2022-08-25T10:20:16.079Z,61.61
2022-08-25T10:21:16.067Z,60.89
2022-08-25T10:22:16.057Z,59.09
2022-08-25T10:23:16.068Z,58.99
2022-08-25T10:24:16.052Z,58.67
2022-08-25T10:25:16.050Z,58.84
2022-08-25T10:26:16.018Z,58.74
2022-08-25T10:27:16.008Z,58.02
2022-08-25T10:28:16.016Z,57.14
2022-08-25T10:29:16.034Z,57.14
2022-08-25T10:30:15.999Z,57.95
2022-08-25T10:31:16.099Z,58.89
2022-08-25T10:32:15.968Z,59.71
2022-08-25T10:33:15.948Z,60.33
2022-08-25T10:34:15.952Z,61.44
2022-08-25T10:35:16.637Z,62.03
2022-08-25T10:36:15.916Z,61.60
2022-08-25T10:37:15.905Z,62.78
2022-08-25T10:38:21.798Z,62.91
2022-08-25T10:39:34.324Z,63.86
2022-08-25T10:40:17.028Z,64.55
2022-08-25T10:41:15.864Z,65.27
2022-08-25T10:42:15.851Z,65.70
2022-08-25T10:43:15.856Z,65.80
2022-08-25T10:44:15.830Z,66.33
2022-08-25T10:45:21.736Z,66.13
2022-08-25T10:46:16.891Z,67.02
2022-08-25T10:47:15.801Z,67.44
2022-08-25T10:48:15.803Z,67.44
2022-08-25T10:49:15.780Z,67.28
2022-08-25T10:50:15.771Z,67.58
2022-08-25T10:51:20.427Z,67.47
2022-08-25T10:52:16.745Z,67.97
2022-08-25T10:53:15.751Z,68.27
2022-08-25T10:54:15.741Z,68.27
2022-08-25T10:55:15.721Z,68.17
2022-08-25T10:56:15.706Z,68.27
2022-08-25T10:57:15.702Z,68.46
2022-08-25T10:58:15.700Z,68.07
2022-08-25T10:59:15.676Z,67.47
2022-08-25T11:00:15.665Z,67.97
2022-08-25T11:01:15.727Z,67.87
2022-08-25T11:02:15.643Z,68.37
2022-08-25T11:03:15.646Z,67.97
2022-08-25T11:04:15.647Z,68.57
2022-08-25T11:05:15.680Z,68.60
2022-08-25T11:06:16.597Z,68.57
2022-08-25T11:07:15.604Z,68.37
2022-08-25T11:08:15.596Z,68.57
2022-08-25T11:09:15.581Z,68.37
2022-08-25T11:10:15.558Z,68.57
2022-08-25T11:11:15.548Z,68.86
2022-08-25T11:12:15.538Z,68.57
2022-08-25T11:13:15.537Z,68.07
2022-08-25T11:14:15.514Z,68.10
2022-08-25T11:15:15.503Z,68.10
2022-08-25T11:16:18.912Z,69.13
2022-08-25T11:17:15.556Z,68.43
2022-08-25T11:18:15.492Z,68.60
2022-08-25T11:19:15.463Z,68.04
2022-08-25T11:20:15.628Z,68.13
2022-08-25T11:21:16.439Z,68.04
2022-08-25T11:22:15.431Z,68.43
2022-08-25T11:23:15.433Z,68.33
2022-08-25T11:24:15.409Z,69.62
2022-08-25T11:25:15.399Z,68.63
2022-08-25T11:26:15.385Z,68.63
2022-08-25T11:27:15.378Z,68.63
2022-08-25T11:28:15.378Z,68.43
2022-08-25T11:29:15.957Z,68.63
2022-08-25T11:30:15.346Z,68.83
2022-08-25T11:31:15.405Z,68.80
2022-08-25T11:32:15.320Z,68.10
2022-08-25T11:33:15.330Z,68.10
2022-08-25T11:34:15.303Z,67.91
2022-08-25T11:35:15.324Z,68.13
2022-08-25T11:36:15.279Z,67.94
2022-08-25T11:37:15.273Z,68.10
2022-08-25T11:38:15.265Z,67.91
2022-08-25T11:39:15.256Z,68.80
2022-08-25T11:40:15.311Z,68.10
2022-08-25T11:41:15.227Z,68.40
2022-08-25T11:42:15.217Z,68.10
2022-08-25T11:43:15.218Z,68.70
2022-08-25T11:44:15.194Z,68.07
2022-08-25T11:45:15.220Z,68.46
2022-08-25T11:46:15.224Z,68.07
2022-08-25T11:47:15.166Z,67.97
2022-08-25T11:48:16.167Z,67.91
2022-08-25T11:49:15.141Z,68.01
2022-08-25T11:50:15.131Z,67.61
2022-08-25T11:51:15.151Z,68.07
2022-08-25T11:52:15.109Z,68.01
2022-08-25T11:53:15.151Z,68.20
2022-08-25T11:54:15.087Z,67.91
2022-08-25T11:55:15.088Z,68.20
2022-08-25T11:56:15.066Z,67.91
2022-08-25T11:57:15.056Z,68.30
2022-08-25T11:58:15.055Z,68.20
2022-08-25T11:59:15.041Z,68.30
2022-08-25T12:00:15.021Z,68.20
2022-08-25T12:01:15.013Z,68.10
2022-08-25T12:02:15.007Z,68.10
2022-08-25T12:03:15.004Z,68.30
2022-08-25T12:04:15.169Z,68.01
2022-08-25T12:05:15.130Z,68.10
2022-08-25T12:06:14.957Z,67.58
2022-08-25T12:07:14.951Z,68.10
2022-08-25T12:08:14.961Z,68.07
2022-08-25T12:09:14.927Z,67.61
2022-08-25T12:10:14.924Z,67.28
2022-08-25T12:11:14.904Z,67.68
2022-08-25T12:12:14.893Z,67.68
2022-08-25T12:13:14.907Z,67.77
2022-08-25T12:14:14.873Z,67.68
2022-08-25T12:15:14.864Z,67.58
2022-08-25T12:16:14.905Z,67.68
2022-08-25T12:17:14.842Z,67.38
2022-08-25T12:18:15.301Z,67.47
2022-08-25T12:19:14.834Z,67.58
2022-08-25T12:20:14.809Z,67.18
2022-08-25T12:21:14.801Z,67.38
2022-08-25T12:22:14.788Z,67.47
2022-08-25T12:23:15.788Z,67.58
2022-08-25T12:24:14.766Z,67.77
2022-08-25T12:25:14.754Z,67.58
2022-08-25T12:26:14.756Z,68.01
2022-08-25T12:27:14.787Z,68.30
2022-08-25T12:28:14.733Z,67.80
2022-08-25T12:29:14.729Z,67.31
2022-08-25T12:30:18.670Z,67.80
2022-08-25T12:31:15.855Z,67.61
2022-08-25T12:32:14.678Z,67.38
2022-08-25T12:33:14.679Z,67.38
2022-08-25T12:34:14.660Z,67.58
2022-08-25T12:35:14.666Z,67.11
2022-08-25T12:36:14.638Z,67.47
2022-08-25T12:37:14.636Z,67.31
2022-08-25T12:38:14.615Z,67.21
2022-08-25T12:39:14.605Z,67.71
2022-08-25T12:40:14.683Z,67.14
2022-08-25T12:41:14.585Z,67.54
2022-08-25T12:42:14.584Z,67.94
2022-08-25T12:43:14.561Z,68.24
2022-08-25T12:44:15.550Z,68.33
2022-08-25T12:45:14.540Z,68.13
2022-08-25T12:46:14.582Z,68.24
2022-08-25T12:47:14.534Z,68.24
2022-08-25T12:48:14.506Z,68.24
2022-08-25T12:49:14.496Z,68.33
2022-08-25T12:50:14.484Z,68.30
2022-08-25T12:51:14.478Z,68.33
2022-08-25T12:52:14.477Z,68.01
2022-08-25T12:53:14.478Z,68.01